sensor_id;sensor_type;location;lat;lon;timestamp;P1;durP1;ratioP1;P2;durP2;ratioP2
7215;SDS011;3649;48.798;9.798;2023-04-08T00:00:11;6.87;;;6.27;;
7215;SDS011;3649;48.798;9.798;2023-04-08T00:02:38;8.07;;;6.43;;
7215;SDS011;3649;48.798;9.798;2023-04-08T00:05:05;7.63;;;6.97;;
7215;SDS011;3649;48.798;9.798;2023-04-08T00:07:33;7.33;;;6.73;;
7215;SDS011;3649;48.798;9.798;2023-04-08T00:10:01;7.20;;;6.60;;
7215;SDS011;3649;48.798;9.798;2023-04-08T00:12:28;7.20;;;6.60;;
7215;SDS011;3649;48.798;9.798;2023-04-08T00:14:55;8.33;;;7.63;;
7215;SDS011;3649;48.798;9.798;2023-04-08T00:17:22;8.10;;;7.03;;
7215;SDS011;3649;48.798;9.798;2023-04-08T00:19:50;9.17;;;8.27;;
7215;SDS011;3649;48.798;9.798;2023-04-08T00:22:16;8.27;;;6.97;;
7215;SDS011;3649;48.798;9.798;2023-04-08T00:24:44;7.40;;;6.70;;
7215;SDS011;3649;48.798;9.798;2023-04-08T00:27:10;7.83;;;7.10;;
7215;SDS011;3649;48.798;9.798;2023-04-08T00:29:37;6.83;;;6.17;;
7215;SDS011;3649;48.798;9.798;2023-04-08T00:32:04;8.37;;;7.57;;
7215;SDS011;3649;48.798;9.798;2023-04-08T00:34:31;9.03;;;6.73;;
7215;SDS011;3649;48.798;9.798;2023-04-08T00:36:58;7.97;;;7.27;;
7215;SDS011;3649;48.798;9.798;2023-04-08T00:39:25;7.90;;;7.17;;
7215;SDS011;3649;48.798;9.798;2023-04-08T00:41:51;8.37;;;7.57;;
7215;SDS011;3649;48.798;9.798;2023-04-08T00:44:18;7.77;;;6.97;;
7215;SDS011;3649;48.798;9.798;2023-04-08T00:46:45;7.97;;;7.13;;
7215;SDS011;3649;48.798;9.798;2023-04-08T00:49:12;8.07;;;7.27;;
7215;SDS011;3649;48.798;9.798;2023-04-08T00:51:39;9.70;;;7.13;;
7215;SDS011;3649;48.798;9.798;2023-04-08T00:54:06;8.13;;;7.43;;
7215;SDS011;3649;48.798;9.798;2023-04-08T00:56:33;8.40;;;7.57;;
7215;SDS011;3649;48.798;9.798;2023-04-08T00:59:01;7.83;;;7.07;;
7215;SDS011;3649;48.798;9.798;2023-04-08T01:01:33;8.77;;;7.60;;
7215;SDS011;3649;48.798;9.798;2023-04-08T01:04:20;8.63;;;7.83;;
7215;SDS011;3649;48.798;9.798;2023-04-08T01:06:58;8.00;;;7.20;;
7215;SDS011;3649;48.798;9.798;2023-04-08T01:09:27;8.90;;;8.00;;
7215;SDS011;3649;48.798;9.798;2023-04-08T01:11:57;8.77;;;8.00;;
7215;SDS011;3649;48.798;9.798;2023-04-08T01:14:30;10.47;;;8.23;;
7215;SDS011;3649;48.798;9.798;2023-04-08T01:17:00;9.00;;;7.93;;
7215;SDS011;3649;48.798;9.798;2023-04-08T01:19:31;8.57;;;7.77;;
7215;SDS011;3649;48.798;9.798;2023-04-08T01:22:02;9.10;;;8.20;;
7215;SDS011;3649;48.798;9.798;2023-04-08T01:24:38;10.60;;;8.20;;
7215;SDS011;3649;48.798;9.798;2023-04-08T01:27:08;8.87;;;7.97;;
7215;SDS011;3649;48.798;9.798;2023-04-08T01:29:36;9.50;;;8.50;;
7215;SDS011;3649;48.798;9.798;2023-04-08T01:32:05;9.30;;;8.50;;
7215;SDS011;3649;48.798;9.798;2023-04-08T01:34:33;9.20;;;8.40;;
7215;SDS011;3649;48.798;9.798;2023-04-08T01:37:01;9.67;;;8.67;;
7215;SDS011;3649;48.798;9.798;2023-04-08T01:39:29;10.57;;;8.70;;
7215;SDS011;3649;48.798;9.798;2023-04-08T01:41:56;9.43;;;8.53;;
7215;SDS011;3649;48.798;9.798;2023-04-08T01:44:25;9.73;;;8.50;;
7215;SDS011;3649;48.798;9.798;2023-04-08T01:46:52;9.87;;;8.80;;
7215;SDS011;3649;48.798;9.798;2023-04-08T01:49:21;10.17;;;9.17;;
7215;SDS011;3649;48.798;9.798;2023-04-08T01:51:50;10.13;;;9.20;;
7215;SDS011;3649;48.798;9.798;2023-04-08T01:54:18;10.43;;;9.43;;
7215;SDS011;3649;48.798;9.798;2023-04-08T01:56:45;10.03;;;9.13;;
7215;SDS011;3649;48.798;9.798;2023-04-08T01:59:13;10.87;;;9.83;;
7215;SDS011;3649;48.798;9.798;2023-04-08T02:01:42;9.97;;;9.07;;
7215;SDS011;3649;48.798;9.798;2023-04-08T02:04:11;11.27;;;10.03;;
7215;SDS011;3649;48.798;9.798;2023-04-08T02:06:38;11.67;;;10.57;;
7215;SDS011;3649;48.798;9.798;2023-04-08T02:09:05;10.43;;;9.30;;
7215;SDS011;3649;48.798;9.798;2023-04-08T02:11:33;12.17;;;10.60;;
7215;SDS011;3649;48.798;9.798;2023-04-08T02:14:01;10.77;;;9.67;;
7215;SDS011;3649;48.798;9.798;2023-04-08T02:19:23;10.93;;;9.83;;
7215;SDS011;3649;48.798;9.798;2023-04-08T02:22:04;11.23;;;10.03;;
7215;SDS011;3649;48.798;9.798;2023-04-08T02:24:34;11.07;;;9.93;;
7215;SDS011;3649;48.798;9.798;2023-04-08T02:27:03;11.63;;;10.43;;
7215;SDS011;3649;48.798;9.798;2023-04-08T02:29:31;12.03;;;10.77;;
7215;SDS011;3649;48.798;9.798;2023-04-08T02:32:00;10.93;;;9.83;;
7215;SDS011;3649;48.798;9.798;2023-04-08T02:34:28;13.27;;;10.83;;
7215;SDS011;3649;48.798;9.798;2023-04-08T02:36:55;11.37;;;10.27;;
7215;SDS011;3649;48.798;9.798;2023-04-08T02:39:29;11.13;;;10.13;;
7215;SDS011;3649;48.798;9.798;2023-04-08T02:42:00;11.23;;;10.23;;
7215;SDS011;3649;48.798;9.798;2023-04-08T02:44:27;11.97;;;10.77;;
7215;SDS011;3649;48.798;9.798;2023-04-08T02:46:53;11.70;;;10.50;;
7215;SDS011;3649;48.798;9.798;2023-04-08T02:49:21;11.23;;;10.20;;
7215;SDS011;3649;48.798;9.798;2023-04-08T02:51:47;12.27;;;11.07;;
7215;SDS011;3649;48.798;9.798;2023-04-08T02:54:14;12.20;;;11.00;;
7215;SDS011;3649;48.798;9.798;2023-04-08T02:56:41;14.67;;;11.90;;
7215;SDS011;3649;48.798;9.798;2023-04-08T02:59:08;13.00;;;11.80;;
7215;SDS011;3649;48.798;9.798;2023-04-08T03:01:35;13.10;;;11.83;;
7215;SDS011;3649;48.798;9.798;2023-04-08T03:04:01;13.13;;;11.57;;
7215;SDS011;3649;48.798;9.798;2023-04-08T03:06:28;12.73;;;11.53;;
7215;SDS011;3649;48.798;9.798;2023-04-08T03:08:56;12.90;;;11.70;;
7215;SDS011;3649;48.798;9.798;2023-04-08T03:11:23;12.63;;;11.43;;
7215;SDS011;3649;48.798;9.798;2023-04-08T03:13:50;12.60;;;11.40;;
7215;SDS011;3649;48.798;9.798;2023-04-08T03:16:17;11.97;;;10.77;;
7215;SDS011;3649;48.798;9.798;2023-04-08T03:18:43;12.03;;;10.63;;
7215;SDS011;3649;48.798;9.798;2023-04-08T03:21:10;12.60;;;11.40;;
7215;SDS011;3649;48.798;9.798;2023-04-08T03:23:37;12.00;;;10.90;;
7215;SDS011;3649;48.798;9.798;2023-04-08T03:26:04;11.50;;;10.40;;
7215;SDS011;3649;48.798;9.798;2023-04-08T03:28:31;13.10;;;11.80;;
7215;SDS011;3649;48.798;9.798;2023-04-08T03:30:58;12.53;;;10.00;;
7215;SDS011;3649;48.798;9.798;2023-04-08T03:33:26;11.17;;;10.17;;
7215;SDS011;3649;48.798;9.798;2023-04-08T03:35:53;11.87;;;10.17;;
7215;SDS011;3649;48.798;9.798;2023-04-08T03:38:20;12.40;;;11.23;;
7215;SDS011;3649;48.798;9.798;2023-04-08T03:40:47;11.83;;;10.63;;
7215;SDS011;3649;48.798;9.798;2023-04-08T03:43:14;11.30;;;10.20;;
7215;SDS011;3649;48.798;9.798;2023-04-08T03:45:41;11.43;;;10.23;;
7215;SDS011;3649;48.798;9.798;2023-04-08T03:48:08;10.57;;;9.67;;
7215;SDS011;3649;48.798;9.798;2023-04-08T03:50:35;10.93;;;9.83;;
7215;SDS011;3649;48.798;9.798;2023-04-08T03:53:01;10.57;;;9.57;;
7215;SDS011;3649;48.798;9.798;2023-04-08T03:55:28;11.87;;;10.67;;
7215;SDS011;3649;48.798;9.798;2023-04-08T03:57:55;10.13;;;9.23;;
7215;SDS011;3649;48.798;9.798;2023-04-08T04:00:22;10.30;;;9.20;;
7215;SDS011;3649;48.798;9.798;2023-04-08T04:02:48;11.23;;;10.13;;
7215;SDS011;3649;48.798;9.798;2023-04-08T04:05:15;11.77;;;9.60;;
7215;SDS011;3649;48.798;9.798;2023-04-08T04:07:42;10.20;;;9.23;;
7215;SDS011;3649;48.798;9.798;2023-04-08T04:10:09;10.10;;;9.10;;
7215;SDS011;3649;48.798;9.798;2023-04-08T04:12:37;10.03;;;9.00;;
7215;SDS011;3649;48.798;9.798;2023-04-08T04:15:04;9.73;;;8.83;;
7215;SDS011;3649;48.798;9.798;2023-04-08T04:17:31;10.90;;;9.80;;
7215;SDS011;3649;48.798;9.798;2023-04-08T04:19:58;10.57;;;9.47;;
7215;SDS011;3649;48.798;9.798;2023-04-08T04:22:25;11.13;;;10.03;;
7215;SDS011;3649;48.798;9.798;2023-04-08T04:24:52;10.03;;;9.13;;
7215;SDS011;3649;48.798;9.798;2023-04-08T04:27:19;10.90;;;9.90;;
7215;SDS011;3649;48.798;9.798;2023-04-08T04:29:46;10.67;;;9.67;;
7215;SDS011;3649;48.798;9.798;2023-04-08T04:32:13;11.47;;;10.37;;
7215;SDS011;3649;48.798;9.798;2023-04-08T04:34:41;11.77;;;10.60;;
7215;SDS011;3649;48.798;9.798;2023-04-08T04:37:09;12.07;;;10.77;;
7215;SDS011;3649;48.798;9.798;2023-04-08T04:39:36;11.97;;;10.40;;
7215;SDS011;3649;48.798;9.798;2023-04-08T04:42:03;11.63;;;10.57;;
7215;SDS011;3649;48.798;9.798;2023-04-08T04:44:30;12.63;;;11.33;;
7215;SDS011;3649;48.798;9.798;2023-04-08T04:46:56;10.67;;;9.70;;
7215;SDS011;3649;48.798;9.798;2023-04-08T04:49:23;10.40;;;9.40;;
7215;SDS011;3649;48.798;9.798;2023-04-08T04:51:50;11.73;;;10.60;;
7215;SDS011;3649;48.798;9.798;2023-04-08T04:54:17;12.70;;;11.40;;
7215;SDS011;3649;48.798;9.798;2023-04-08T04:56:44;11.50;;;10.40;;
7215;SDS011;3649;48.798;9.798;2023-04-08T04:59:11;12.73;;;11.53;;
7215;SDS011;3649;48.798;9.798;2023-04-08T05:01:38;13.17;;;11.77;;
7215;SDS011;3649;48.798;9.798;2023-04-08T05:04:06;13.13;;;11.37;;
7215;SDS011;3649;48.798;9.798;2023-04-08T05:06:33;13.77;;;11.67;;
7215;SDS011;3649;48.798;9.798;2023-04-08T05:09:00;12.67;;;11.47;;
7215;SDS011;3649;48.798;9.798;2023-04-08T05:11:26;12.07;;;10.77;;
7215;SDS011;3649;48.798;9.798;2023-04-08T05:13:53;12.73;;;11.43;;
7215;SDS011;3649;48.798;9.798;2023-04-08T05:16:20;11.60;;;10.40;;
7215;SDS011;3649;48.798;9.798;2023-04-08T05:18:47;12.67;;;11.37;;
7215;SDS011;3649;48.798;9.798;2023-04-08T05:21:14;13.73;;;10.97;;
7215;SDS011;3649;48.798;9.798;2023-04-08T05:23:41;12.57;;;11.33;;
7215;SDS011;3649;48.798;9.798;2023-04-08T05:26:08;12.20;;;11.00;;
7215;SDS011;3649;48.798;9.798;2023-04-08T05:28:35;12.00;;;10.80;;
7215;SDS011;3649;48.798;9.798;2023-04-08T05:31:01;11.83;;;10.67;;
7215;SDS011;3649;48.798;9.798;2023-04-08T05:33:28;12.27;;;11.07;;
7215;SDS011;3649;48.798;9.798;2023-04-08T05:35:55;12.30;;;11.13;;
7215;SDS011;3649;48.798;9.798;2023-04-08T05:38:22;12.07;;;10.87;;
7215;SDS011;3649;48.798;9.798;2023-04-08T05:40:49;12.73;;;11.50;;
7215;SDS011;3649;48.798;9.798;2023-04-08T05:43:16;12.50;;;11.23;;
7215;SDS011;3649;48.798;9.798;2023-04-08T05:45:43;13.67;;;11.70;;
7215;SDS011;3649;48.798;9.798;2023-04-08T05:48:10;12.40;;;11.10;;
7215;SDS011;3649;48.798;9.798;2023-04-08T05:50:37;13.20;;;11.90;;
7215;SDS011;3649;48.798;9.798;2023-04-08T05:53:04;13.67;;;12.23;;
7215;SDS011;3649;48.798;9.798;2023-04-08T05:55:31;14.90;;;11.70;;
7215;SDS011;3649;48.798;9.798;2023-04-08T05:57:58;15.80;;;13.93;;
7215;SDS011;3649;48.798;9.798;2023-04-08T06:00:24;13.50;;;12.20;;
7215;SDS011;3649;48.798;9.798;2023-04-08T06:02:52;13.07;;;11.77;;
7215;SDS011;3649;48.798;9.798;2023-04-08T06:05:19;13.83;;;12.37;;
7215;SDS011;3649;48.798;9.798;2023-04-08T06:07:46;14.83;;;12.17;;
7215;SDS011;3649;48.798;9.798;2023-04-08T06:10:12;14.07;;;12.47;;
7215;SDS011;3649;48.798;9.798;2023-04-08T06:12:39;14.63;;;13.23;;
7215;SDS011;3649;48.798;9.798;2023-04-08T06:15:06;14.43;;;12.93;;
7215;SDS011;3649;48.798;9.798;2023-04-08T06:17:37;15.07;;;13.23;;
7215;SDS011;3649;48.798;9.798;2023-04-08T06:20:05;13.30;;;11.97;;
7215;SDS011;3649;48.798;9.798;2023-04-08T06:22:32;13.30;;;11.90;;
7215;SDS011;3649;48.798;9.798;2023-04-08T06:24:58;13.43;;;11.73;;
7215;SDS011;3649;48.798;9.798;2023-04-08T06:27:25;12.70;;;11.40;;
7215;SDS011;3649;48.798;9.798;2023-04-08T06:29:52;13.23;;;11.93;;
7215;SDS011;3649;48.798;9.798;2023-04-08T06:32:20;13.53;;;12.30;;
7215;SDS011;3649;48.798;9.798;2023-04-08T06:34:48;12.80;;;11.50;;
7215;SDS011;3649;48.798;9.798;2023-04-08T06:37:14;12.07;;;10.83;;
7215;SDS011;3649;48.798;9.798;2023-04-08T06:39:41;12.40;;;11.00;;
7215;SDS011;3649;48.798;9.798;2023-04-08T06:42:09;12.87;;;11.50;;
7215;SDS011;3649;48.798;9.798;2023-04-08T06:44:36;13.13;;;11.83;;
7215;SDS011;3649;48.798;9.798;2023-04-08T06:47:03;13.50;;;12.10;;
7215;SDS011;3649;48.798;9.798;2023-04-08T06:49:30;12.83;;;11.63;;
7215;SDS011;3649;48.798;9.798;2023-04-08T06:51:57;15.20;;;13.70;;
7215;SDS011;3649;48.798;9.798;2023-04-08T06:54:24;13.03;;;11.73;;
7215;SDS011;3649;48.798;9.798;2023-04-08T06:56:50;12.93;;;11.63;;
7215;SDS011;3649;48.798;9.798;2023-04-08T06:59:17;13.70;;;12.30;;
7215;SDS011;3649;48.798;9.798;2023-04-08T07:01:44;13.33;;;12.00;;
7215;SDS011;3649;48.798;9.798;2023-04-08T07:04:12;13.40;;;12.03;;
7215;SDS011;3649;48.798;9.798;2023-04-08T07:06:38;13.70;;;12.27;;
7215;SDS011;3649;48.798;9.798;2023-04-08T07:09:05;13.83;;;12.50;;
7215;SDS011;3649;48.798;9.798;2023-04-08T07:11:33;13.23;;;11.93;;
7215;SDS011;3649;48.798;9.798;2023-04-08T07:13:59;12.97;;;11.40;;
7215;SDS011;3649;48.798;9.798;2023-04-08T07:16:26;13.47;;;11.97;;
7215;SDS011;3649;48.798;9.798;2023-04-08T07:18:53;12.50;;;11.27;;
7215;SDS011;3649;48.798;9.798;2023-04-08T07:21:20;13.20;;;11.90;;
7215;SDS011;3649;48.798;9.798;2023-04-08T07:23:47;14.33;;;12.23;;
7215;SDS011;3649;48.798;9.798;2023-04-08T07:26:14;12.17;;;10.87;;
7215;SDS011;3649;48.798;9.798;2023-04-08T07:28:41;12.80;;;11.50;;
7215;SDS011;3649;48.798;9.798;2023-04-08T07:31:12;14.50;;;11.90;;
7215;SDS011;3649;48.798;9.798;2023-04-08T07:33:41;13.67;;;12.20;;
7215;SDS011;3649;48.798;9.798;2023-04-08T07:36:09;13.77;;;12.07;;
7215;SDS011;3649;48.798;9.798;2023-04-08T07:38:37;14.97;;;13.03;;
7215;SDS011;3649;48.798;9.798;2023-04-08T07:41:04;13.33;;;11.57;;
7215;SDS011;3649;48.798;9.798;2023-04-08T07:43:31;13.00;;;11.67;;
7215;SDS011;3649;48.798;9.798;2023-04-08T07:46:00;12.30;;;11.10;;
7215;SDS011;3649;48.798;9.798;2023-04-08T07:48:30;14.03;;;11.50;;
7215;SDS011;3649;48.798;9.798;2023-04-08T07:51:01;12.80;;;11.60;;
7215;SDS011;3649;48.798;9.798;2023-04-08T07:53:36;12.20;;;10.90;;
7215;SDS011;3649;48.798;9.798;2023-04-08T07:56:09;12.13;;;10.93;;
7215;SDS011;3649;48.798;9.798;2023-04-08T07:58:37;13.57;;;10.83;;
7215;SDS011;3649;48.798;9.798;2023-04-08T08:01:18;12.57;;;10.73;;
7215;SDS011;3649;48.798;9.798;2023-04-08T08:03:47;12.27;;;11.07;;
7215;SDS011;3649;48.798;9.798;2023-04-08T08:06:15;12.23;;;10.70;;
7215;SDS011;3649;48.798;9.798;2023-04-08T08:08:42;12.43;;;11.13;;
7215;SDS011;3649;48.798;9.798;2023-04-08T08:11:09;11.60;;;10.50;;
7215;SDS011;3649;48.798;9.798;2023-04-08T08:13:36;11.70;;;10.60;;
7215;SDS011;3649;48.798;9.798;2023-04-08T08:16:03;13.60;;;11.00;;
7215;SDS011;3649;48.798;9.798;2023-04-08T08:18:34;12.17;;;10.87;;
7215;SDS011;3649;48.798;9.798;2023-04-08T08:21:02;11.93;;;10.80;;
7215;SDS011;3649;48.798;9.798;2023-04-08T08:23:29;11.80;;;10.70;;
7215;SDS011;3649;48.798;9.798;2023-04-08T08:25:59;12.10;;;10.77;;
7215;SDS011;3649;48.798;9.798;2023-04-08T08:28:27;11.03;;;9.93;;
7215;SDS011;3649;48.798;9.798;2023-04-08T08:30:54;13.00;;;10.93;;
7215;SDS011;3649;48.798;9.798;2023-04-08T08:33:21;11.13;;;10.00;;
7215;SDS011;3649;48.798;9.798;2023-04-08T08:35:48;11.70;;;10.50;;
7215;SDS011;3649;48.798;9.798;2023-04-08T08:38:15;12.73;;;11.07;;
7215;SDS011;3649;48.798;9.798;2023-04-08T08:40:43;14.57;;;11.37;;
7215;SDS011;3649;48.798;9.798;2023-04-08T08:43:10;11.67;;;10.57;;
7215;SDS011;3649;48.798;9.798;2023-04-08T08:45:40;11.90;;;10.77;;
7215;SDS011;3649;48.798;9.798;2023-04-08T08:48:07;11.43;;;10.23;;
7215;SDS011;3649;48.798;9.798;2023-04-08T08:50:34;12.47;;;10.73;;
7215;SDS011;3649;48.798;9.798;2023-04-08T08:53:01;15.93;;;10.80;;
7215;SDS011;3649;48.798;9.798;2023-04-08T08:55:29;12.97;;;11.27;;
7215;SDS011;3649;48.798;9.798;2023-04-08T08:58:19;11.77;;;10.63;;
7215;SDS011;3649;48.798;9.798;2023-04-08T09:00:45;10.70;;;9.70;;
7215;SDS011;3649;48.798;9.798;2023-04-08T09:05:47;10.87;;;9.87;;
7215;SDS011;3649;48.798;9.798;2023-04-08T09:08:27;12.43;;;10.93;;
7215;SDS011;3649;48.798;9.798;2023-04-08T09:13:59;10.57;;;9.50;;
7215;SDS011;3649;48.798;9.798;2023-04-08T09:16:26;10.70;;;9.60;;
7215;SDS011;3649;48.798;9.798;2023-04-08T09:18:54;11.13;;;10.00;;
7215;SDS011;3649;48.798;9.798;2023-04-08T09:21:33;10.47;;;9.57;;
7215;SDS011;3649;48.798;9.798;2023-04-08T09:24:00;10.53;;;9.43;;
7215;SDS011;3649;48.798;9.798;2023-04-08T09:26:28;10.73;;;9.40;;
7215;SDS011;3649;48.798;9.798;2023-04-08T09:32:08;10.27;;;9.27;;
7215;SDS011;3649;48.798;9.798;2023-04-08T09:34:35;10.43;;;9.10;;
7215;SDS011;3649;48.798;9.798;2023-04-08T09:37:02;11.33;;;9.00;;
7215;SDS011;3649;48.798;9.798;2023-04-08T09:39:29;10.77;;;8.47;;
7215;SDS011;3649;48.798;9.798;2023-04-08T09:41:57;9.83;;;8.27;;
7215;SDS011;3649;48.798;9.798;2023-04-08T09:44:27;10.77;;;9.07;;
7215;SDS011;3649;48.798;9.798;2023-04-08T09:47:07;11.17;;;8.57;;
7215;SDS011;3649;48.798;9.798;2023-04-08T09:49:39;9.93;;;8.20;;
7215;SDS011;3649;48.798;9.798;2023-04-08T09:52:15;10.33;;;8.77;;
7215;SDS011;3649;48.798;9.798;2023-04-08T09:54:58;9.37;;;8.43;;
7215;SDS011;3649;48.798;9.798;2023-04-08T09:57:30;9.80;;;8.80;;
7215;SDS011;3649;48.798;9.798;2023-04-08T10:05:17;12.25;;;9.20;;
7215;SDS011;3649;48.798;9.798;2023-04-08T10:07:46;10.23;;;8.37;;
7215;SDS011;3649;48.798;9.798;2023-04-08T10:10:15;9.27;;;8.37;;
7215;SDS011;3649;48.798;9.798;2023-04-08T10:12:43;9.03;;;8.10;;
7215;SDS011;3649;48.798;9.798;2023-04-08T10:15:22;9.03;;;8.13;;
7215;SDS011;3649;48.798;9.798;2023-04-08T10:17:54;8.60;;;7.80;;
7215;SDS011;3649;48.798;9.798;2023-04-08T10:23:07;9.47;;;8.43;;
7215;SDS011;3649;48.798;9.798;2023-04-08T10:25:39;9.63;;;8.63;;
7215;SDS011;3649;48.798;9.798;2023-04-08T10:30:44;8.67;;;7.77;;
7215;SDS011;3649;48.798;9.798;2023-04-08T10:33:31;9.30;;;7.73;;
7215;SDS011;3649;48.798;9.798;2023-04-08T10:38:34;8.70;;;7.80;;
7215;SDS011;3649;48.798;9.798;2023-04-08T10:41:01;12.67;;;8.77;;
7215;SDS011;3649;48.798;9.798;2023-04-08T10:43:32;8.33;;;7.53;;
7215;SDS011;3649;48.798;9.798;2023-04-08T10:46:00;8.10;;;7.30;;
7215;SDS011;3649;48.798;9.798;2023-04-08T10:48:28;9.40;;;7.83;;
7215;SDS011;3649;48.798;9.798;2023-04-08T10:50:55;8.63;;;7.20;;
7215;SDS011;3649;48.798;9.798;2023-04-08T10:53:41;9.17;;;7.37;;
7215;SDS011;3649;48.798;9.798;2023-04-08T10:56:09;8.13;;;7.00;;
7215;SDS011;3649;48.798;9.798;2023-04-08T10:58:48;8.03;;;7.23;;
7215;SDS011;3649;48.798;9.798;2023-04-08T11:01:16;7.93;;;7.13;;
7215;SDS011;3649;48.798;9.798;2023-04-08T11:03:43;7.43;;;6.73;;
7215;SDS011;3649;48.798;9.798;2023-04-08T11:06:11;7.50;;;6.80;;
7215;SDS011;3649;48.798;9.798;2023-04-08T11:08:38;10.67;;;7.27;;
7215;SDS011;3649;48.798;9.798;2023-04-08T11:11:05;8.00;;;7.30;;
7215;SDS011;3649;48.798;9.798;2023-04-08T11:13:38;8.27;;;7.03;;
7215;SDS011;3649;48.798;9.798;2023-04-08T11:16:19;7.33;;;6.63;;
7215;SDS011;3649;48.798;9.798;2023-04-08T11:18:49;8.43;;;6.83;;
7215;SDS011;3649;48.798;9.798;2023-04-08T11:21:16;7.10;;;6.40;;
7215;SDS011;3649;48.798;9.798;2023-04-08T11:23:43;7.67;;;6.70;;
7215;SDS011;3649;48.798;9.798;2023-04-08T11:26:10;8.00;;;7.20;;
7215;SDS011;3649;48.798;9.798;2023-04-08T11:28:37;7.33;;;6.63;;
7215;SDS011;3649;48.798;9.798;2023-04-08T11:31:04;7.97;;;6.47;;
7215;SDS011;3649;48.798;9.798;2023-04-08T11:33:31;6.93;;;6.27;;
7215;SDS011;3649;48.798;9.798;2023-04-08T11:36:00;7.27;;;6.57;;
7215;SDS011;3649;48.798;9.798;2023-04-08T11:38:31;7.50;;;6.80;;
7215;SDS011;3649;48.798;9.798;2023-04-08T11:40:58;7.60;;;6.80;;
7215;SDS011;3649;48.798;9.798;2023-04-08T11:43:25;6.87;;;6.13;;
7215;SDS011;3649;48.798;9.798;2023-04-08T11:45:52;7.60;;;6.80;;
7215;SDS011;3649;48.798;9.798;2023-04-08T11:48:19;6.87;;;6.17;;
7215;SDS011;3649;48.798;9.798;2023-04-08T11:50:46;8.10;;;6.20;;
7215;SDS011;3649;48.798;9.798;2023-04-08T11:53:17;6.80;;;6.20;;
7215;SDS011;3649;48.798;9.798;2023-04-08T11:55:50;7.20;;;6.43;;
7215;SDS011;3649;48.798;9.798;2023-04-08T11:58:17;6.27;;;5.67;;
7215;SDS011;3649;48.798;9.798;2023-04-08T12:00:44;8.00;;;6.63;;
7215;SDS011;3649;48.798;9.798;2023-04-08T12:03:14;7.13;;;6.53;;
7215;SDS011;3649;48.798;9.798;2023-04-08T12:05:41;8.03;;;7.13;;
7215;SDS011;3649;48.798;9.798;2023-04-08T12:08:08;6.83;;;6.13;;
7215;SDS011;3649;48.798;9.798;2023-04-08T12:10:35;7.67;;;6.93;;
7215;SDS011;3649;48.798;9.798;2023-04-08T12:13:01;7.37;;;6.20;;
7215;SDS011;3649;48.798;9.798;2023-04-08T12:15:28;6.30;;;5.70;;
7215;SDS011;3649;48.798;9.798;2023-04-08T12:17:55;6.73;;;6.10;;
7215;SDS011;3649;48.798;9.798;2023-04-08T12:20:22;6.43;;;5.53;;
7215;SDS011;3649;48.798;9.798;2023-04-08T12:22:49;6.70;;;6.00;;
7215;SDS011;3649;48.798;9.798;2023-04-08T12:25:16;7.50;;;6.10;;
7215;SDS011;3649;48.798;9.798;2023-04-08T12:27:43;6.27;;;5.67;;
7215;SDS011;3649;48.798;9.798;2023-04-08T12:30:10;7.00;;;6.30;;
7215;SDS011;3649;48.798;9.798;2023-04-08T12:32:37;6.50;;;5.67;;
7215;SDS011;3649;48.798;9.798;2023-04-08T12:35:04;8.60;;;7.47;;
7215;SDS011;3649;48.798;9.798;2023-04-08T12:37:31;9.30;;;7.87;;
7215;SDS011;3649;48.798;9.798;2023-04-08T12:39:58;6.90;;;6.30;;
7215;SDS011;3649;48.798;9.798;2023-04-08T12:42:25;6.53;;;5.93;;
7215;SDS011;3649;48.798;9.798;2023-04-08T12:44:53;6.77;;;6.07;;
7215;SDS011;3649;48.798;9.798;2023-04-08T12:47:20;6.47;;;5.87;;
7215;SDS011;3649;48.798;9.798;2023-04-08T12:49:50;6.07;;;5.50;;
7215;SDS011;3649;48.798;9.798;2023-04-08T12:52:16;7.10;;;5.70;;
7215;SDS011;3649;48.798;9.798;2023-04-08T12:54:44;6.47;;;5.83;;
7215;SDS011;3649;48.798;9.798;2023-04-08T12:57:10;7.43;;;5.33;;
7215;SDS011;3649;48.798;9.798;2023-04-08T12:59:37;5.97;;;5.37;;
7215;SDS011;3649;48.798;9.798;2023-04-08T13:02:05;6.90;;;6.20;;
7215;SDS011;3649;48.798;9.798;2023-04-08T13:04:33;6.53;;;5.87;;
7215;SDS011;3649;48.798;9.798;2023-04-08T13:07:00;6.53;;;5.90;;
7215;SDS011;3649;48.798;9.798;2023-04-08T13:09:27;8.43;;;6.30;;
7215;SDS011;3649;48.798;9.798;2023-04-08T13:11:55;8.00;;;6.17;;
7215;SDS011;3649;48.798;9.798;2023-04-08T13:14:23;7.03;;;6.30;;
7215;SDS011;3649;48.798;9.798;2023-04-08T13:16:50;6.53;;;5.67;;
7215;SDS011;3649;48.798;9.798;2023-04-08T13:19:17;7.23;;;6.53;;
7215;SDS011;3649;48.798;9.798;2023-04-08T13:21:44;8.17;;;5.63;;
7215;SDS011;3649;48.798;9.798;2023-04-08T13:24:11;8.03;;;6.47;;
7215;SDS011;3649;48.798;9.798;2023-04-08T13:26:38;6.57;;;5.97;;
7215;SDS011;3649;48.798;9.798;2023-04-08T13:29:05;7.30;;;6.67;;
7215;SDS011;3649;48.798;9.798;2023-04-08T13:31:32;6.37;;;5.73;;
7215;SDS011;3649;48.798;9.798;2023-04-08T13:33:59;6.57;;;5.97;;
7215;SDS011;3649;48.798;9.798;2023-04-08T13:36:26;7.13;;;6.47;;
7215;SDS011;3649;48.798;9.798;2023-04-08T13:38:54;7.23;;;6.33;;
7215;SDS011;3649;48.798;9.798;2023-04-08T13:41:21;6.73;;;6.03;;
7215;SDS011;3649;48.798;9.798;2023-04-08T13:43:48;6.70;;;6.07;;
7215;SDS011;3649;48.798;9.798;2023-04-08T13:46:15;8.20;;;6.30;;
7215;SDS011;3649;48.798;9.798;2023-04-08T13:48:43;5.47;;;5.07;;
7215;SDS011;3649;48.798;9.798;2023-04-08T13:51:11;5.87;;;5.27;;
7215;SDS011;3649;48.798;9.798;2023-04-08T13:53:38;6.13;;;5.60;;
7215;SDS011;3649;48.798;9.798;2023-04-08T13:56:05;6.53;;;5.93;;
7215;SDS011;3649;48.798;9.798;2023-04-08T13:58:32;6.17;;;5.33;;
7215;SDS011;3649;48.798;9.798;2023-04-08T14:00:58;5.73;;;4.97;;
7215;SDS011;3649;48.798;9.798;2023-04-08T14:03:25;5.57;;;5.07;;
7215;SDS011;3649;48.798;9.798;2023-04-08T14:05:53;5.33;;;4.93;;
7215;SDS011;3649;48.798;9.798;2023-04-08T14:08:20;7.30;;;4.77;;
7215;SDS011;3649;48.798;9.798;2023-04-08T14:10:51;5.37;;;4.77;;
7215;SDS011;3649;48.798;9.798;2023-04-08T14:13:18;7.30;;;5.53;;
7215;SDS011;3649;48.798;9.798;2023-04-08T14:15:46;5.93;;;5.43;;
7215;SDS011;3649;48.798;9.798;2023-04-08T14:18:13;6.40;;;5.67;;
7215;SDS011;3649;48.798;9.798;2023-04-08T14:20:42;5.93;;;5.43;;
7215;SDS011;3649;48.798;9.798;2023-04-08T14:23:09;8.03;;;6.53;;
7215;SDS011;3649;48.798;9.798;2023-04-08T14:25:38;5.90;;;5.40;;
7215;SDS011;3649;48.798;9.798;2023-04-08T14:28:06;6.53;;;5.93;;
7215;SDS011;3649;48.798;9.798;2023-04-08T14:30:33;6.63;;;5.97;;
7215;SDS011;3649;48.798;9.798;2023-04-08T14:33:01;6.30;;;5.77;;
7215;SDS011;3649;48.798;9.798;2023-04-08T14:35:29;6.57;;;5.90;;
7215;SDS011;3649;48.798;9.798;2023-04-08T14:37:57;5.57;;;5.17;;
7215;SDS011;3649;48.798;9.798;2023-04-08T14:40:24;5.80;;;5.30;;
7215;SDS011;3649;48.798;9.798;2023-04-08T14:42:51;5.83;;;5.33;;
7215;SDS011;3649;48.798;9.798;2023-04-08T14:45:18;4.83;;;4.43;;
7215;SDS011;3649;48.798;9.798;2023-04-08T14:47:44;6.93;;;5.50;;
7215;SDS011;3649;48.798;9.798;2023-04-08T14:50:11;5.37;;;4.97;;
7215;SDS011;3649;48.798;9.798;2023-04-08T14:52:38;4.90;;;4.50;;
7215;SDS011;3649;48.798;9.798;2023-04-08T14:55:05;5.30;;;4.87;;
7215;SDS011;3649;48.798;9.798;2023-04-08T14:57:33;5.67;;;4.37;;
7215;SDS011;3649;48.798;9.798;2023-04-08T14:59:59;5.03;;;4.63;;
7215;SDS011;3649;48.798;9.798;2023-04-08T15:02:27;5.53;;;5.03;;
7215;SDS011;3649;48.798;9.798;2023-04-08T15:04:54;5.70;;;5.13;;
7215;SDS011;3649;48.798;9.798;2023-04-08T15:07:21;5.50;;;5.00;;
7215;SDS011;3649;48.798;9.798;2023-04-08T15:09:48;4.80;;;4.40;;
7215;SDS011;3649;48.798;9.798;2023-04-08T15:12:15;4.80;;;4.40;;
7215;SDS011;3649;48.798;9.798;2023-04-08T15:14:42;6.27;;;5.73;;
7215;SDS011;3649;48.798;9.798;2023-04-08T15:17:09;5.90;;;5.50;;
7215;SDS011;3649;48.798;9.798;2023-04-08T15:19:36;5.47;;;5.03;;
7215;SDS011;3649;48.798;9.798;2023-04-08T15:22:05;5.13;;;4.73;;
7215;SDS011;3649;48.798;9.798;2023-04-08T15:24:32;6.37;;;5.07;;
7215;SDS011;3649;48.798;9.798;2023-04-08T15:26:59;5.50;;;5.00;;
7215;SDS011;3649;48.798;9.798;2023-04-08T15:29:26;6.13;;;5.63;;
7215;SDS011;3649;48.798;9.798;2023-04-08T15:31:53;5.43;;;5.03;;